Gerald, Missouri
Current Conditions -  °F | °C
As of 10:35 AM on Friday 21 Nov 2014 (Local Time) from KFYG Reporting Station
Unknown Precip Unknown Precip  
Wind Chill: 28°   Ceiling: Unl
Heat Index: 36°   Visibility: 10mi
Dew Point: 18°   Wind: 12mph
Humidity: 48%   Direction: 140°SE
Pressure: 30.38"   Gusts: 17mph
Location:  38.4°N, 91.33°W
Report Text: KFYG 211635Z AUTO 14010G15KT 10SM UP CLR 02/M08 A3038 RMK AO2
Loading
Personal Weather Stations






























Interactive Weather Map New forecast layout! Learn more

10-Day Weather Forecast

Advertisements
Track Severe Weather on mobile